sensor_id;sensor_type;location;lat;lon;timestamp;P1;durP1;ratioP1;P2;durP2;ratioP2
74335;SDS011;62755;-33.398;-70.572;2022-12-29T00:00:22;19.90;;;3.25;;
74335;SDS011;62755;-33.398;-70.572;2022-12-29T00:02:52;21.33;;;3.33;;
74335;SDS011;62755;-33.398;-70.572;2022-12-29T00:05:23;20.23;;;3.20;;
74335;SDS011;62755;-33.398;-70.572;2022-12-29T00:07:54;21.52;;;2.90;;
74335;SDS011;62755;-33.398;-70.572;2022-12-29T00:10:24;13.73;;;2.78;;
74335;SDS011;62755;-33.398;-70.572;2022-12-29T00:12:53;15.63;;;2.88;;
74335;SDS011;62755;-33.398;-70.572;2022-12-29T00:15:45;19.13;;;3.10;;
74335;SDS011;62755;-33.398;-70.572;2022-12-29T00:18:15;13.52;;;2.95;;
74335;SDS011;62755;-33.398;-70.572;2022-12-29T00:20:44;16.60;;;3.17;;
74335;SDS011;62755;-33.398;-70.572;2022-12-29T00:23:32;23.15;;;3.20;;
74335;SDS011;62755;-33.398;-70.572;2022-12-29T00:26:24;12.75;;;3.22;;
74335;SDS011;62755;-33.398;-70.572;2022-12-29T00:29:10;16.90;;;2.88;;
74335;SDS011;62755;-33.398;-70.572;2022-12-29T00:31:56;13.18;;;3.10;;
74335;SDS011;62755;-33.398;-70.572;2022-12-29T00:34:38;23.13;;;3.70;;
74335;SDS011;62755;-33.398;-70.572;2022-12-29T00:37:24;20.85;;;3.50;;
74335;SDS011;62755;-33.398;-70.572;2022-12-29T00:40:09;16.38;;;3.08;;
74335;SDS011;62755;-33.398;-70.572;2022-12-29T00:42:55;25.02;;;3.53;;
74335;SDS011;62755;-33.398;-70.572;2022-12-29T00:48:10;18.45;;;3.53;;
74335;SDS011;62755;-33.398;-70.572;2022-12-29T00:50:39;21.67;;;3.65;;
74335;SDS011;62755;-33.398;-70.572;2022-12-29T00:53:07;18.27;;;3.25;;
74335;SDS011;62755;-33.398;-70.572;2022-12-29T00:55:39;23.80;;;3.03;;
74335;SDS011;62755;-33.398;-70.572;2022-12-29T00:58:08;16.58;;;3.38;;
74335;SDS011;62755;-33.398;-70.572;2022-12-29T01:00:38;21.75;;;4.00;;
74335;SDS011;62755;-33.398;-70.572;2022-12-29T01:03:07;21.40;;;3.00;;
74335;SDS011;62755;-33.398;-70.572;2022-12-29T01:05:37;15.60;;;3.28;;
74335;SDS011;62755;-33.398;-70.572;2022-12-29T01:08:07;21.52;;;3.42;;
74335;SDS011;62755;-33.398;-70.572;2022-12-29T01:10:38;17.40;;;3.47;;
74335;SDS011;62755;-33.398;-70.572;2022-12-29T01:13:06;17.40;;;3.28;;
74335;SDS011;62755;-33.398;-70.572;2022-12-29T01:15:36;14.10;;;2.85;;
74335;SDS011;62755;-33.398;-70.572;2022-12-29T01:18:06;17.67;;;3.35;;
74335;SDS011;62755;-33.398;-70.572;2022-12-29T01:20:35;19.00;;;3.05;;
74335;SDS011;62755;-33.398;-70.572;2022-12-29T01:23:05;18.67;;;3.42;;
74335;SDS011;62755;-33.398;-70.572;2022-12-29T01:25:35;17.70;;;3.60;;
74335;SDS011;62755;-33.398;-70.572;2022-12-29T01:28:06;18.42;;;3.67;;
74335;SDS011;62755;-33.398;-70.572;2022-12-29T01:30:35;20.45;;;3.28;;
74335;SDS011;62755;-33.398;-70.572;2022-12-29T01:33:05;17.77;;;4.03;;
74335;SDS011;62755;-33.398;-70.572;2022-12-29T01:35:35;17.55;;;3.35;;
74335;SDS011;62755;-33.398;-70.572;2022-12-29T01:38:05;20.13;;;3.50;;
74335;SDS011;62755;-33.398;-70.572;2022-12-29T01:40:37;14.88;;;3.38;;
74335;SDS011;62755;-33.398;-70.572;2022-12-29T01:43:14;21.20;;;3.60;;
74335;SDS011;62755;-33.398;-70.572;2022-12-29T01:45:44;19.98;;;4.22;;
74335;SDS011;62755;-33.398;-70.572;2022-12-29T01:48:17;12.38;;;3.80;;
74335;SDS011;62755;-33.398;-70.572;2022-12-29T01:50:50;18.90;;;4.28;;
74335;SDS011;62755;-33.398;-70.572;2022-12-29T01:53:23;28.25;;;4.78;;
74335;SDS011;62755;-33.398;-70.572;2022-12-29T01:55:59;22.33;;;3.83;;
74335;SDS011;62755;-33.398;-70.572;2022-12-29T01:58:39;22.15;;;4.30;;
74335;SDS011;62755;-33.398;-70.572;2022-12-29T02:01:13;17.90;;;3.67;;
74335;SDS011;62755;-33.398;-70.572;2022-12-29T02:03:46;17.25;;;4.07;;
74335;SDS011;62755;-33.398;-70.572;2022-12-29T02:06:18;17.35;;;3.47;;
74335;SDS011;62755;-33.398;-70.572;2022-12-29T02:08:52;15.07;;;3.63;;
74335;SDS011;62755;-33.398;-70.572;2022-12-29T02:11:24;15.10;;;3.65;;
74335;SDS011;62755;-33.398;-70.572;2022-12-29T02:13:57;16.48;;;3.40;;
74335;SDS011;62755;-33.398;-70.572;2022-12-29T02:16:30;21.58;;;3.88;;
74335;SDS011;62755;-33.398;-70.572;2022-12-29T02:19:15;14.18;;;3.47;;
74335;SDS011;62755;-33.398;-70.572;2022-12-29T02:22:14;13.60;;;3.28;;
74335;SDS011;62755;-33.398;-70.572;2022-12-29T02:28:05;20.27;;;4.60;;
74335;SDS011;62755;-33.398;-70.572;2022-12-29T02:30:58;17.67;;;3.63;;
74335;SDS011;62755;-33.398;-70.572;2022-12-29T02:33:37;15.43;;;4.10;;
74335;SDS011;62755;-33.398;-70.572;2022-12-29T02:36:20;23.83;;;4.40;;
74335;SDS011;62755;-33.398;-70.572;2022-12-29T02:38:59;16.67;;;4.05;;
74335;SDS011;62755;-33.398;-70.572;2022-12-29T02:41:37;24.15;;;4.30;;
74335;SDS011;62755;-33.398;-70.572;2022-12-29T02:44:19;25.73;;;4.55;;
74335;SDS011;62755;-33.398;-70.572;2022-12-29T02:46:56;15.82;;;3.60;;
74335;SDS011;62755;-33.398;-70.572;2022-12-29T02:49:33;24.38;;;4.10;;
74335;SDS011;62755;-33.398;-70.572;2022-12-29T02:52:06;30.58;;;4.85;;
74335;SDS011;62755;-33.398;-70.572;2022-12-29T02:54:40;19.02;;;3.60;;
74335;SDS011;62755;-33.398;-70.572;2022-12-29T02:57:13;15.98;;;3.35;;
74335;SDS011;62755;-33.398;-70.572;2022-12-29T02:59:55;25.07;;;4.13;;
74335;SDS011;62755;-33.398;-70.572;2022-12-29T03:02:37;21.90;;;4.03;;
74335;SDS011;62755;-33.398;-70.572;2022-12-29T03:05:34;15.85;;;3.72;;
74335;SDS011;62755;-33.398;-70.572;2022-12-29T03:08:22;18.42;;;3.97;;
74335;SDS011;62755;-33.398;-70.572;2022-12-29T03:10:59;14.20;;;3.88;;
74335;SDS011;62755;-33.398;-70.572;2022-12-29T03:13:33;25.75;;;4.57;;
74335;SDS011;62755;-33.398;-70.572;2022-12-29T03:16:28;14.95;;;4.35;;
74335;SDS011;62755;-33.398;-70.572;2022-12-29T03:19:04;19.40;;;4.22;;
74335;SDS011;62755;-33.398;-70.572;2022-12-29T03:21:37;27.15;;;4.28;;
74335;SDS011;62755;-33.398;-70.572;2022-12-29T03:24:26;19.15;;;4.68;;
74335;SDS011;62755;-33.398;-70.572;2022-12-29T03:26:58;24.63;;;3.78;;
74335;SDS011;62755;-33.398;-70.572;2022-12-29T03:29:30;14.50;;;4.07;;
74335;SDS011;62755;-33.398;-70.572;2022-12-29T03:32:03;19.05;;;4.22;;
74335;SDS011;62755;-33.398;-70.572;2022-12-29T03:34:37;21.63;;;3.70;;
74335;SDS011;62755;-33.398;-70.572;2022-12-29T03:37:08;20.55;;;4.22;;
74335;SDS011;62755;-33.398;-70.572;2022-12-29T03:39:40;22.70;;;3.67;;
74335;SDS011;62755;-33.398;-70.572;2022-12-29T03:42:11;19.05;;;4.05;;
74335;SDS011;62755;-33.398;-70.572;2022-12-29T03:44:43;20.83;;;4.47;;
74335;SDS011;62755;-33.398;-70.572;2022-12-29T03:47:14;15.55;;;4.22;;
74335;SDS011;62755;-33.398;-70.572;2022-12-29T03:49:45;29.25;;;4.57;;
74335;SDS011;62755;-33.398;-70.572;2022-12-29T03:52:16;20.35;;;4.07;;
74335;SDS011;62755;-33.398;-70.572;2022-12-29T03:54:45;25.02;;;3.78;;
74335;SDS011;62755;-33.398;-70.572;2022-12-29T03:57:15;21.63;;;4.13;;
74335;SDS011;62755;-33.398;-70.572;2022-12-29T03:59:45;22.00;;;3.70;;
74335;SDS011;62755;-33.398;-70.572;2022-12-29T04:02:14;17.88;;;4.05;;
74335;SDS011;62755;-33.398;-70.572;2022-12-29T04:04:46;18.27;;;3.30;;
74335;SDS011;62755;-33.398;-70.572;2022-12-29T04:07:15;19.05;;;3.83;;
74335;SDS011;62755;-33.398;-70.572;2022-12-29T04:09:44;19.45;;;3.83;;
74335;SDS011;62755;-33.398;-70.572;2022-12-29T04:12:14;20.90;;;3.92;;
74335;SDS011;62755;-33.398;-70.572;2022-12-29T04:14:44;24.27;;;4.15;;
74335;SDS011;62755;-33.398;-70.572;2022-12-29T04:17:13;18.27;;;3.70;;
74335;SDS011;62755;-33.398;-70.572;2022-12-29T04:19:45;21.75;;;4.45;;
74335;SDS011;62755;-33.398;-70.572;2022-12-29T04:22:15;16.65;;;3.90;;
74335;SDS011;62755;-33.398;-70.572;2022-12-29T04:24:45;21.88;;;4.40;;
74335;SDS011;62755;-33.398;-70.572;2022-12-29T04:27:14;15.18;;;3.72;;
74335;SDS011;62755;-33.398;-70.572;2022-12-29T04:29:44;24.00;;;4.95;;
74335;SDS011;62755;-33.398;-70.572;2022-12-29T04:32:14;23.50;;;4.15;;
74335;SDS011;62755;-33.398;-70.572;2022-12-29T04:34:46;27.65;;;4.90;;
74335;SDS011;62755;-33.398;-70.572;2022-12-29T04:37:15;20.45;;;4.25;;
74335;SDS011;62755;-33.398;-70.572;2022-12-29T04:39:45;28.42;;;4.22;;
74335;SDS011;62755;-33.398;-70.572;2022-12-29T04:42:15;15.10;;;3.90;;
74335;SDS011;62755;-33.398;-70.572;2022-12-29T04:44:44;20.85;;;4.07;;
74335;SDS011;62755;-33.398;-70.572;2022-12-29T04:47:14;16.20;;;4.50;;
74335;SDS011;62755;-33.398;-70.572;2022-12-29T04:49:46;22.83;;;4.47;;
74335;SDS011;62755;-33.398;-70.572;2022-12-29T04:52:15;19.17;;;4.32;;
74335;SDS011;62755;-33.398;-70.572;2022-12-29T04:54:45;16.17;;;4.57;;
74335;SDS011;62755;-33.398;-70.572;2022-12-29T04:57:14;15.68;;;3.60;;
74335;SDS011;62755;-33.398;-70.572;2022-12-29T04:59:44;15.15;;;3.42;;
74335;SDS011;62755;-33.398;-70.572;2022-12-29T05:02:13;21.25;;;3.22;;
74335;SDS011;62755;-33.398;-70.572;2022-12-29T05:04:43;17.65;;;3.58;;
74335;SDS011;62755;-33.398;-70.572;2022-12-29T05:07:14;14.70;;;3.42;;
74335;SDS011;62755;-33.398;-70.572;2022-12-29T05:09:44;17.63;;;3.00;;
74335;SDS011;62755;-33.398;-70.572;2022-12-29T05:12:14;16.38;;;3.35;;
74335;SDS011;62755;-33.398;-70.572;2022-12-29T05:14:43;15.50;;;3.88;;
74335;SDS011;62755;-33.398;-70.572;2022-12-29T05:17:13;23.30;;;3.92;;
74335;SDS011;62755;-33.398;-70.572;2022-12-29T05:19:42;12.55;;;3.03;;
74335;SDS011;62755;-33.398;-70.572;2022-12-29T05:22:14;19.45;;;3.90;;
74335;SDS011;62755;-33.398;-70.572;2022-12-29T05:24:43;13.73;;;3.22;;
74335;SDS011;62755;-33.398;-70.572;2022-12-29T05:27:13;16.83;;;3.58;;
74335;SDS011;62755;-33.398;-70.572;2022-12-29T05:29:42;19.25;;;3.10;;
74335;SDS011;62755;-33.398;-70.572;2022-12-29T05:32:12;20.77;;;3.50;;
74335;SDS011;62755;-33.398;-70.572;2022-12-29T05:34:42;18.90;;;3.17;;
74335;SDS011;62755;-33.398;-70.572;2022-12-29T05:37:11;21.65;;;3.70;;
74335;SDS011;62755;-33.398;-70.572;2022-12-29T05:39:43;18.58;;;3.58;;
74335;SDS011;62755;-33.398;-70.572;2022-12-29T05:42:13;28.13;;;3.90;;
74335;SDS011;62755;-33.398;-70.572;2022-12-29T05:44:42;21.05;;;3.83;;
74335;SDS011;62755;-33.398;-70.572;2022-12-29T05:47:12;15.40;;;3.25;;
74335;SDS011;62755;-33.398;-70.572;2022-12-29T05:49:41;14.15;;;3.03;;
74335;SDS011;62755;-33.398;-70.572;2022-12-29T05:52:11;18.27;;;3.50;;
74335;SDS011;62755;-33.398;-70.572;2022-12-29T05:54:43;27.33;;;3.88;;
74335;SDS011;62755;-33.398;-70.572;2022-12-29T05:57:12;16.00;;;3.70;;
74335;SDS011;62755;-33.398;-70.572;2022-12-29T05:59:42;13.93;;;3.30;;
74335;SDS011;62755;-33.398;-70.572;2022-12-29T06:02:11;12.73;;;3.30;;
74335;SDS011;62755;-33.398;-70.572;2022-12-29T06:04:41;18.23;;;3.25;;
74335;SDS011;62755;-33.398;-70.572;2022-12-29T06:07:11;21.92;;;3.55;;
74335;SDS011;62755;-33.398;-70.572;2022-12-29T06:09:42;17.95;;;3.92;;
74335;SDS011;62755;-33.398;-70.572;2022-12-29T06:12:11;17.65;;;4.30;;
74335;SDS011;62755;-33.398;-70.572;2022-12-29T06:14:41;20.13;;;3.63;;
74335;SDS011;62755;-33.398;-70.572;2022-12-29T06:17:11;16.02;;;3.53;;
74335;SDS011;62755;-33.398;-70.572;2022-12-29T06:19:40;18.63;;;3.20;;
74335;SDS011;62755;-33.398;-70.572;2022-12-29T06:22:10;14.85;;;3.08;;
74335;SDS011;62755;-33.398;-70.572;2022-12-29T06:24:39;15.70;;;2.65;;
74335;SDS011;62755;-33.398;-70.572;2022-12-29T06:27:11;12.15;;;3.00;;
74335;SDS011;62755;-33.398;-70.572;2022-12-29T06:29:41;19.48;;;2.92;;
74335;SDS011;62755;-33.398;-70.572;2022-12-29T06:32:11;18.25;;;3.03;;
74335;SDS011;62755;-33.398;-70.572;2022-12-29T06:34:43;16.20;;;2.80;;
74335;SDS011;62755;-33.398;-70.572;2022-12-29T06:37:12;14.32;;;3.20;;
74335;SDS011;62755;-33.398;-70.572;2022-12-29T06:39:44;15.40;;;3.10;;
74335;SDS011;62755;-33.398;-70.572;2022-12-29T06:42:13;12.75;;;2.97;;
74335;SDS011;62755;-33.398;-70.572;2022-12-29T06:44:43;17.33;;;3.33;;
74335;SDS011;62755;-33.398;-70.572;2022-12-29T06:47:13;25.90;;;3.38;;
74335;SDS011;62755;-33.398;-70.572;2022-12-29T06:49:42;17.45;;;3.05;;
74335;SDS011;62755;-33.398;-70.572;2022-12-29T06:52:12;17.58;;;3.30;;
74335;SDS011;62755;-33.398;-70.572;2022-12-29T06:54:43;13.38;;;3.40;;
74335;SDS011;62755;-33.398;-70.572;2022-12-29T06:57:13;14.05;;;3.40;;
74335;SDS011;62755;-33.398;-70.572;2022-12-29T06:59:42;21.45;;;3.25;;
74335;SDS011;62755;-33.398;-70.572;2022-12-29T07:02:12;18.70;;;3.00;;
74335;SDS011;62755;-33.398;-70.572;2022-12-29T07:04:43;13.40;;;2.78;;
74335;SDS011;62755;-33.398;-70.572;2022-12-29T07:07:13;15.38;;;3.25;;
74335;SDS011;62755;-33.398;-70.572;2022-12-29T07:09:45;13.50;;;2.80;;
74335;SDS011;62755;-33.398;-70.572;2022-12-29T07:12:15;11.40;;;2.60;;
74335;SDS011;62755;-33.398;-70.572;2022-12-29T07:14:45;21.40;;;3.30;;
74335;SDS011;62755;-33.398;-70.572;2022-12-29T07:17:15;13.63;;;3.08;;
74335;SDS011;62755;-33.398;-70.572;2022-12-29T07:19:44;12.68;;;2.75;;
74335;SDS011;62755;-33.398;-70.572;2022-12-29T07:22:14;14.43;;;2.42;;
74335;SDS011;62755;-33.398;-70.572;2022-12-29T07:24:45;12.38;;;3.05;;
74335;SDS011;62755;-33.398;-70.572;2022-12-29T07:27:15;22.73;;;2.88;;
74335;SDS011;62755;-33.398;-70.572;2022-12-29T07:29:44;13.52;;;3.15;;
74335;SDS011;62755;-33.398;-70.572;2022-12-29T07:32:14;13.27;;;2.90;;
74335;SDS011;62755;-33.398;-70.572;2022-12-29T07:34:44;16.35;;;2.72;;
74335;SDS011;62755;-33.398;-70.572;2022-12-29T07:37:14;16.13;;;2.78;;
74335;SDS011;62755;-33.398;-70.572;2022-12-29T07:39:46;10.07;;;2.70;;
74335;SDS011;62755;-33.398;-70.572;2022-12-29T07:42:15;13.88;;;3.00;;
74335;SDS011;62755;-33.398;-70.572;2022-12-29T07:44:45;18.65;;;2.95;;
74335;SDS011;62755;-33.398;-70.572;2022-12-29T07:47:15;12.13;;;2.97;;
74335;SDS011;62755;-33.398;-70.572;2022-12-29T07:49:44;18.67;;;3.17;;
74335;SDS011;62755;-33.398;-70.572;2022-12-29T07:52:14;15.93;;;3.10;;
74335;SDS011;62755;-33.398;-70.572;2022-12-29T07:54:44;13.65;;;3.00;;
74335;SDS011;62755;-33.398;-70.572;2022-12-29T07:57:15;25.60;;;3.38;;
74335;SDS011;62755;-33.398;-70.572;2022-12-29T07:59:44;13.52;;;3.15;;
74335;SDS011;62755;-33.398;-70.572;2022-12-29T08:02:14;16.42;;;2.95;;
74335;SDS011;62755;-33.398;-70.572;2022-12-29T08:04:44;14.25;;;3.22;;
74335;SDS011;62755;-33.398;-70.572;2022-12-29T08:07:14;12.40;;;3.17;;
74335;SDS011;62755;-33.398;-70.572;2022-12-29T08:09:43;16.40;;;3.30;;
74335;SDS011;62755;-33.398;-70.572;2022-12-29T08:12:15;14.65;;;3.08;;
74335;SDS011;62755;-33.398;-70.572;2022-12-29T08:14:45;15.80;;;2.92;;
74335;SDS011;62755;-33.398;-70.572;2022-12-29T08:17:14;16.45;;;2.85;;
74335;SDS011;62755;-33.398;-70.572;2022-12-29T08:19:44;12.68;;;2.63;;
74335;SDS011;62755;-33.398;-70.572;2022-12-29T08:22:14;15.85;;;3.08;;
74335;SDS011;62755;-33.398;-70.572;2022-12-29T08:24:44;10.30;;;2.83;;
74335;SDS011;62755;-33.398;-70.572;2022-12-29T08:27:15;22.27;;;3.42;;
74335;SDS011;62755;-33.398;-70.572;2022-12-29T08:29:46;15.90;;;2.83;;
74335;SDS011;62755;-33.398;-70.572;2022-12-29T08:32:15;11.50;;;2.83;;
74335;SDS011;62755;-33.398;-70.572;2022-12-29T08:34:45;13.07;;;2.50;;
74335;SDS011;62755;-33.398;-70.572;2022-12-29T08:37:15;16.00;;;2.90;;
74335;SDS011;62755;-33.398;-70.572;2022-12-29T08:39:45;12.82;;;2.80;;
74335;SDS011;62755;-33.398;-70.572;2022-12-29T08:42:17;12.90;;;3.13;;
74335;SDS011;62755;-33.398;-70.572;2022-12-29T08:44:46;13.27;;;2.90;;
74335;SDS011;62755;-33.398;-70.572;2022-12-29T08:47:16;18.63;;;3.17;;
74335;SDS011;62755;-33.398;-70.572;2022-12-29T08:49:45;10.30;;;2.83;;
74335;SDS011;62755;-33.398;-70.572;2022-12-29T08:52:15;13.38;;;2.55;;
74335;SDS011;62755;-33.398;-70.572;2022-12-29T08:54:44;11.52;;;2.55;;
74335;SDS011;62755;-33.398;-70.572;2022-12-29T08:57:16;13.75;;;2.55;;
74335;SDS011;62755;-33.398;-70.572;2022-12-29T08:59:46;18.42;;;2.92;;
74335;SDS011;62755;-33.398;-70.572;2022-12-29T09:02:15;12.45;;;2.72;;
74335;SDS011;62755;-33.398;-70.572;2022-12-29T09:04:45;12.05;;;2.35;;
74335;SDS011;62755;-33.398;-70.572;2022-12-29T09:07:15;18.00;;;2.88;;
74335;SDS011;62755;-33.398;-70.572;2022-12-29T09:09:44;13.68;;;2.35;;
74335;SDS011;62755;-33.398;-70.572;2022-12-29T09:12:14;17.42;;;3.55;;
74335;SDS011;62755;-33.398;-70.572;2022-12-29T09:14:46;17.50;;;3.88;;
74335;SDS011;62755;-33.398;-70.572;2022-12-29T09:17:15;14.82;;;4.18;;
74335;SDS011;62755;-33.398;-70.572;2022-12-29T09:20:01;21.23;;;5.88;;
74335;SDS011;62755;-33.398;-70.572;2022-12-29T09:22:31;16.45;;;3.22;;
74335;SDS011;62755;-33.398;-70.572;2022-12-29T09:25:01;15.75;;;3.30;;
74335;SDS011;62755;-33.398;-70.572;2022-12-29T09:27:33;18.33;;;3.35;;
74335;SDS011;62755;-33.398;-70.572;2022-12-29T09:30:03;17.63;;;2.92;;
74335;SDS011;62755;-33.398;-70.572;2022-12-29T09:32:34;19.88;;;3.35;;
74335;SDS011;62755;-33.398;-70.572;2022-12-29T09:35:04;13.68;;;2.55;;
74335;SDS011;62755;-33.398;-70.572;2022-12-29T09:37:34;14.85;;;2.92;;
74335;SDS011;62755;-33.398;-70.572;2022-12-29T09:40:04;10.48;;;2.63;;
74335;SDS011;62755;-33.398;-70.572;2022-12-29T09:42:37;19.92;;;3.45;;
74335;SDS011;62755;-33.398;-70.572;2022-12-29T09:45:11;11.25;;;2.65;;
74335;SDS011;62755;-33.398;-70.572;2022-12-29T09:47:44;12.80;;;3.65;;
74335;SDS011;62755;-33.398;-70.572;2022-12-29T09:50:17;21.15;;;2.85;;
74335;SDS011;62755;-33.398;-70.572;2022-12-29T09:52:52;12.80;;;3.45;;
74335;SDS011;62755;-33.398;-70.572;2022-12-29T09:55:30;16.95;;;3.50;;
74335;SDS011;62755;-33.398;-70.572;2022-12-29T09:58:05;15.65;;;2.78;;
74335;SDS011;62755;-33.398;-70.572;2022-12-29T10:00:43;21.02;;;3.80;;
74335;SDS011;62755;-33.398;-70.572;2022-12-29T10:03:19;20.20;;;4.65;;
74335;SDS011;62755;-33.398;-70.572;2022-12-29T10:05:50;21.88;;;4.18;;
74335;SDS011;62755;-33.398;-70.572;2022-12-29T10:08:28;27.23;;;4.50;;
74335;SDS011;62755;-33.398;-70.572;2022-12-29T10:11:14;20.70;;;4.50;;
74335;SDS011;62755;-33.398;-70.572;2022-12-29T10:16:30;25.73;;;3.70;;
74335;SDS011;62755;-33.398;-70.572;2022-12-29T10:19:11;31.98;;;5.35;;
74335;SDS011;62755;-33.398;-70.572;2022-12-29T10:22:03;20.08;;;3.95;;
74335;SDS011;62755;-33.398;-70.572;2022-12-29T10:24:41;20.60;;;4.22;;
74335;SDS011;62755;-33.398;-70.572;2022-12-29T10:27:13;12.90;;;4.55;;
74335;SDS011;62755;-33.398;-70.572;2022-12-29T10:32:27;19.65;;;4.13;;
74335;SDS011;62755;-33.398;-70.572;2022-12-29T10:35:01;24.33;;;3.97;;
74335;SDS011;62755;-33.398;-70.572;2022-12-29T10:37:36;21.48;;;4.50;;
74335;SDS011;62755;-33.398;-70.572;2022-12-29T10:40:13;17.75;;;3.55;;
74335;SDS011;62755;-33.398;-70.572;2022-12-29T10:42:49;17.52;;;3.08;;
74335;SDS011;62755;-33.398;-70.572;2022-12-29T10:45:23;18.35;;;3.42;;
74335;SDS011;62755;-33.398;-70.572;2022-12-29T10:47:57;15.98;;;3.20;;
74335;SDS011;62755;-33.398;-70.572;2022-12-29T10:50:31;16.25;;;3.25;;
74335;SDS011;62755;-33.398;-70.572;2022-12-29T10:53:02;28.45;;;3.20;;
74335;SDS011;62755;-33.398;-70.572;2022-12-29T10:55:33;20.88;;;3.40;;
74335;SDS011;62755;-33.398;-70.572;2022-12-29T10:58:06;18.58;;;3.20;;
74335;SDS011;62755;-33.398;-70.572;2022-12-29T11:00:41;16.48;;;3.85;;
74335;SDS011;62755;-33.398;-70.572;2022-12-29T11:03:23;17.13;;;3.55;;
74335;SDS011;62755;-33.398;-70.572;2022-12-29T11:06:09;21.20;;;3.70;;
74335;SDS011;62755;-33.398;-70.572;2022-12-29T11:08:48;14.95;;;3.88;;
74335;SDS011;62755;-33.398;-70.572;2022-12-29T11:11:25;16.45;;;3.63;;
74335;SDS011;62755;-33.398;-70.572;2022-12-29T11:14:02;29.95;;;3.60;;
74335;SDS011;62755;-33.398;-70.572;2022-12-29T11:16:42;16.33;;;3.42;;
74335;SDS011;62755;-33.398;-70.572;2022-12-29T11:19:21;21.55;;;3.05;;
74335;SDS011;62755;-33.398;-70.572;2022-12-29T11:21:51;18.67;;;2.97;;
74335;SDS011;62755;-33.398;-70.572;2022-12-29T11:24:22;15.77;;;2.80;;
74335;SDS011;62755;-33.398;-70.572;2022-12-29T11:26:53;12.75;;;3.25;;
74335;SDS011;62755;-33.398;-70.572;2022-12-29T11:29:37;17.35;;;3.45;;
74335;SDS011;62755;-33.398;-70.572;2022-12-29T11:32:12;14.35;;;3.45;;
74335;SDS011;62755;-33.398;-70.572;2022-12-29T11:34:46;9.88;;;3.00;;
74335;SDS011;62755;-33.398;-70.572;2022-12-29T11:37:16;24.25;;;3.03;;
74335;SDS011;62755;-33.398;-70.572;2022-12-29T11:39:48;20.15;;;3.95;;
74335;SDS011;62755;-33.398;-70.572;2022-12-29T11:42:23;19.25;;;3.17;;
74335;SDS011;62755;-33.398;-70.572;2022-12-29T11:44:58;16.88;;;3.20;;
74335;SDS011;62755;-33.398;-70.572;2022-12-29T11:47:35;17.02;;;2.95;;
74335;SDS011;62755;-33.398;-70.572;2022-12-29T11:50:06;22.42;;;3.35;;
74335;SDS011;62755;-33.398;-70.572;2022-12-29T11:52:43;20.88;;;3.97;;
74335;SDS011;62755;-33.398;-70.572;2022-12-29T11:55:17;17.23;;;3.80;;
74335;SDS011;62755;-33.398;-70.572;2022-12-29T11:57:49;22.97;;;3.63;;
74335;SDS011;62755;-33.398;-70.572;2022-12-29T12:00:20;15.70;;;3.58;;
74335;SDS011;62755;-33.398;-70.572;2022-12-29T12:02:56;26.02;;;3.88;;
74335;SDS011;62755;-33.398;-70.572;2022-12-29T12:05:33;17.02;;;3.55;;
74335;SDS011;62755;-33.398;-70.572;2022-12-29T12:08:09;18.00;;;3.60;;
74335;SDS011;62755;-33.398;-70.572;2022-12-29T12:10:44;25.40;;;3.28;;
74335;SDS011;62755;-33.398;-70.572;2022-12-29T12:13:18;18.75;;;3.97;;
74335;SDS011;62755;-33.398;-70.572;2022-12-29T12:15:52;29.65;;;4.47;;
74335;SDS011;62755;-33.398;-70.572;2022-12-29T12:18:40;20.55;;;4.07;;
74335;SDS011;62755;-33.398;-70.572;2022-12-29T12:21:14;25.40;;;3.90;;
74335;SDS011;62755;-33.398;-70.572;2022-12-29T12:24:02;16.77;;;3.30;;
74335;SDS011;62755;-33.398;-70.572;2022-12-29T12:26:58;21.45;;;3.97;;
74335;SDS011;62755;-33.398;-70.572;2022-12-29T12:29:34;29.10;;;4.40;;
74335;SDS011;62755;-33.398;-70.572;2022-12-29T12:32:10;20.75;;;3.65;;
74335;SDS011;62755;-33.398;-70.572;2022-12-29T12:34:45;23.40;;;3.83;;
74335;SDS011;62755;-33.398;-70.572;2022-12-29T12:37:19;17.23;;;3.55;;
74335;SDS011;62755;-33.398;-70.572;2022-12-29T12:40:07;19.73;;;4.18;;
74335;SDS011;62755;-33.398;-70.572;2022-12-29T12:43:03;20.53;;;3.23;;
74335;SDS011;62755;-33.398;-70.572;2022-12-29T12:45:49;19.27;;;3.45;;
74335;SDS011;62755;-33.398;-70.572;2022-12-29T12:48:28;20.10;;;3.83;;
74335;SDS011;62755;-33.398;-70.572;2022-12-29T12:51:14;23.73;;;3.50;;
74335;SDS011;62755;-33.398;-70.572;2022-12-29T12:54:00;15.70;;;3.78;;
74335;SDS011;62755;-33.398;-70.572;2022-12-29T12:56:41;15.43;;;3.85;;
74335;SDS011;62755;-33.398;-70.572;2022-12-29T12:59:23;18.83;;;4.40;;
74335;SDS011;62755;-33.398;-70.572;2022-12-29T13:02:01;17.88;;;3.90;;
74335;SDS011;62755;-33.398;-70.572;2022-12-29T13:07:36;20.80;;;3.65;;
74335;SDS011;62755;-33.398;-70.572;2022-12-29T13:10:17;19.13;;;3.30;;
74335;SDS011;62755;-33.398;-70.572;2022-12-29T13:12:55;21.92;;;3.60;;
74335;SDS011;62755;-33.398;-70.572;2022-12-29T13:15:41;16.42;;;3.65;;
74335;SDS011;62755;-33.398;-70.572;2022-12-29T13:18:19;22.63;;;3.88;;
74335;SDS011;62755;-33.398;-70.572;2022-12-29T13:20:55;23.85;;;4.18;;
74335;SDS011;62755;-33.398;-70.572;2022-12-29T13:23:33;23.50;;;4.22;;
74335;SDS011;62755;-33.398;-70.572;2022-12-29T13:26:11;15.85;;;3.38;;
74335;SDS011;62755;-33.398;-70.572;2022-12-29T13:28:49;15.35;;;3.30;;
74335;SDS011;62755;-33.398;-70.572;2022-12-29T13:31:26;15.32;;;3.58;;
74335;SDS011;62755;-33.398;-70.572;2022-12-29T13:34:03;29.00;;;4.10;;
74335;SDS011;62755;-33.398;-70.572;2022-12-29T13:36:45;17.58;;;3.85;;
74335;SDS011;62755;-33.398;-70.572;2022-12-29T13:39:23;16.85;;;3.38;;
74335;SDS011;62755;-33.398;-70.572;2022-12-29T13:41:56;17.83;;;3.80;;
74335;SDS011;62755;-33.398;-70.572;2022-12-29T13:44:27;22.55;;;4.47;;
74335;SDS011;62755;-33.398;-70.572;2022-12-29T13:47:00;24.92;;;3.80;;
74335;SDS011;62755;-33.398;-70.572;2022-12-29T13:49:34;16.83;;;4.40;;
74335;SDS011;62755;-33.398;-70.572;2022-12-29T13:52:07;23.58;;;4.30;;
74335;SDS011;62755;-33.398;-70.572;2022-12-29T13:54:44;21.02;;;4.22;;
74335;SDS011;62755;-33.398;-70.572;2022-12-29T13:57:26;29.08;;;3.42;;
74335;SDS011;62755;-33.398;-70.572;2022-12-29T14:00:04;22.67;;;3.83;;
74335;SDS011;62755;-33.398;-70.572;2022-12-29T14:02:45;20.80;;;4.55;;
74335;SDS011;62755;-33.398;-70.572;2022-12-29T14:05:30;15.20;;;3.50;;
74335;SDS011;62755;-33.398;-70.572;2022-12-29T14:08:01;21.20;;;4.45;;
74335;SDS011;62755;-33.398;-70.572;2022-12-29T14:10:34;18.65;;;3.85;;
74335;SDS011;62755;-33.398;-70.572;2022-12-29T14:13:05;18.73;;;3.58;;
74335;SDS011;62755;-33.398;-70.572;2022-12-29T14:15:41;22.15;;;4.15;;
74335;SDS011;62755;-33.398;-70.572;2022-12-29T14:18:13;16.02;;;4.13;;
74335;SDS011;62755;-33.398;-70.572;2022-12-29T14:20:53;19.08;;;3.72;;
74335;SDS011;62755;-33.398;-70.572;2022-12-29T14:23:29;20.67;;;3.90;;
74335;SDS011;62755;-33.398;-70.572;2022-12-29T14:26:14;20.00;;;4.05;;
74335;SDS011;62755;-33.398;-70.572;2022-12-29T14:28:45;17.95;;;3.50;;
74335;SDS011;62755;-33.398;-70.572;2022-12-29T14:36:58;20.70;;;4.38;;
74335;SDS011;62755;-33.398;-70.572;2022-12-29T14:39:32;26.05;;;4.20;;
74335;SDS011;62755;-33.398;-70.572;2022-12-29T14:42:10;22.30;;;3.83;;
74335;SDS011;62755;-33.398;-70.572;2022-12-29T14:44:46;32.17;;;5.28;;
74335;SDS011;62755;-33.398;-70.572;2022-12-29T14:47:18;24.23;;;4.82;;
74335;SDS011;62755;-33.398;-70.572;2022-12-29T14:49:53;21.23;;;4.43;;
74335;SDS011;62755;-33.398;-70.572;2022-12-29T14:52:24;24.10;;;5.38;;